Time;durP1;ratioP1;P1;durP2;ratioP2;P2;SDS_P1;SDS_P2;PMS_P1;PMS_P2;Temp;Humidity;BMP_temperature;BMP_pressure;BME280_temperature;BME280_humidity;BME280_pressure;Samples;Min_cycle;Max_cycle;Signal;HPM_P1;HPM_P2
2022/04/04 00:00:16;;;;;;;7.88;7.07;;;;;;;6.45;55.54;101847.16;2569856;23;20165;-72
2022/04/04 00:01:17;;;;;;;7.87;6.67;;;;;;;6.54;55.75;101853.16;2569977;23;20155;-72
2022/04/04 00:02:17;;;;;;;8.40;7.33;;;;;;;6.57;55.55;101857.91;2569456;23;20594;-72
2022/04/04 00:03:18;;;;;;;8.00;7.20;;;;;;;6.43;55.01;101832.16;2569365;23;20219;-72
2022/04/04 00:04:19;;;;;;;7.93;7.07;;;;;;;6.55;55.59;101846.47;2569605;23;20159;-72
2022/04/04 00:05:21;;;;;;;8.20;7.05;;;;;;;6.60;55.06;101850.84;2569607;23;20668;-72
2022/04/04 00:06:21;;;;;;;7.85;7.05;;;;;;;6.64;55.27;101869.03;2569653;23;20171;-72
2022/04/04 00:07:22;;;;;;;7.90;6.73;;;;;;;6.49;55.56;101833.41;2569120;23;20601;-72
2022/04/04 00:08:23;;;;;;;7.50;6.77;;;;;;;6.30;55.59;101808.81;2569754;23;20563;-72
2022/04/04 00:09:23;;;;;;;8.10;7.27;;;;;;;6.54;55.20;101853.16;2569937;23;20281;-72
2022/04/04 00:10:23;;;;;;;8.23;6.87;;;;;;;6.16;55.40;101800.38;2569837;23;20174;-72
2022/04/04 00:11:24;;;;;;;8.27;7.20;;;;;;;6.47;55.58;101858.56;2569248;23;20151;-72
2022/04/04 00:12:25;;;;;;;7.87;7.07;;;;;;;6.49;55.12;101859.00;2569852;23;20171;-72
2022/04/04 00:13:27;;;;;;;7.67;6.40;;;;;;;6.52;55.19;101855.47;2568995;23;20180;-72
2022/04/04 00:14:27;;;;;;;8.60;7.70;;;;;;;6.42;54.92;101856.16;2569751;23;20620;-72
2022/04/04 00:15:28;;;;;;;8.37;6.90;;;;;;;6.37;55.27;101862.00;2569375;23;20506;-72
2022/04/04 00:16:29;;;;;;;8.10;6.67;;;;;;;6.36;55.70;101865.13;2570068;23;20176;-72
2022/04/04 00:17:29;;;;;;;8.50;7.10;;;;;;;5.81;55.74;101786.94;2568976;23;20152;-72
2022/04/04 00:18:30;;;;;;;19.07;7.90;;;;;;;6.26;56.32;101852.78;2569960;23;20154;-72
2022/04/04 00:19:31;;;;;;;8.10;7.30;;;;;;;6.15;55.90;101875.84;2569791;23;20152;-72
2022/04/04 00:20:31;;;;;;;8.97;7.37;;;;;;;6.15;56.29;101856.59;2569822;23;20151;-72
2022/04/04 00:21:32;;;;;;;10.00;7.63;;;;;;;6.07;56.20;101832.88;2568919;23;20146;-72
2022/04/04 00:22:33;;;;;;;8.70;7.13;;;;;;;6.25;55.94;101855.94;2569935;23;20234;-72
2022/04/04 00:23:33;;;;;;;10.37;7.07;;;;;;;6.28;56.79;101857.94;2568935;23;20212;-72
2022/04/04 00:24:35;;;;;;;9.17;7.40;;;;;;;6.31;56.11;101879.22;2556669;23;20481;-72
2022/04/04 00:25:36;;;;;;;7.97;7.18;;;;;;;6.30;56.09;101855.63;2556791;23;20148;-72
2022/04/04 00:26:36;;;;;;;9.33;7.73;;;;;;;6.35;55.88;101855.28;2569559;23;20147;-72
2022/04/04 00:27:37;;;;;;;7.77;6.83;;;;;;;6.36;55.88;101862.38;2569008;23;20229;-72
2022/04/04 00:28:38;;;;;;;8.33;7.50;;;;;;;5.57;55.81;101737.84;2569678;23;20179;-72
2022/04/04 00:29:38;;;;;;;8.40;7.17;;;;;;;6.36;55.96;101859.63;2570078;23;20151;-72
2022/04/04 00:30:39;;;;;;;8.17;7.00;;;;;;;6.37;55.51;101858.44;2569768;23;20150;-72
2022/04/04 00:31:40;;;;;;;8.35;7.53;;;;;;;6.37;55.57;101862.00;2569182;23;20834;-72
2022/04/04 00:32:41;;;;;;;8.33;7.37;;;;;;;6.35;56.06;101861.56;2569750;23;20191;-72
2022/04/04 00:33:41;;;;;;;8.48;7.00;;;;;;;6.34;55.32;101860.00;2568661;23;20244;-72
2022/04/04 00:34:42;;;;;;;8.83;7.07;;;;;;;6.28;55.09;101858.75;2569678;23;20156;-72
2022/04/04 00:35:43;;;;;;;9.30;7.80;;;;;;;6.25;55.73;101848.47;2556253;23;20688;-72
2022/04/04 00:36:43;;;;;;;9.23;7.53;;;;;;;6.30;55.97;101872.91;2543800;23;20160;-72
2022/04/04 00:37:44;;;;;;;11.00;7.43;;;;;;;6.25;55.21;101872.47;2556425;23;20151;-72
2022/04/04 00:38:45;;;;;;;8.70;7.43;;;;;;;5.60;55.75;101794.06;2569696;23;20155;-72
2022/04/04 00:39:45;;;;;;;9.20;7.57;;;;;;;5.92;56.13;101823.66;2556516;23;20244;-72
2022/04/04 00:40:46;;;;;;;9.23;7.50;;;;;;;5.92;56.59;101833.84;2556524;23;20163;-72
2022/04/04 00:41:47;;;;;;;8.97;7.57;;;;;;;6.11;56.33;101864.78;2569138;23;20352;-72
2022/04/04 00:42:48;;;;;;;8.27;7.35;;;;;;;6.08;56.38;101856.47;2569657;23;20185;-72
2022/04/04 00:43:53;;;;;;;7.90;7.10;;;;;;;6.05;56.29;101860.75;2568686;23;20200;-72
2022/04/04 00:44:53;;;;;;;8.18;7.38;;;;;;;4.86;55.92;101690.41;2569764;23;20234;-72
2022/04/04 00:45:54;;;;;;;8.30;7.37;;;;;;;5.71;57.14;101856.31;2569641;23;20158;-72
2022/04/04 00:46:55;;;;;;;9.40;8.33;;;;;;;5.53;57.66;101862.72;2568632;23;20509;-72
2022/04/04 00:47:55;;;;;;;10.03;7.77;;;;;;;5.41;57.78;101843.63;2569201;23;20598;-72
2022/04/04 00:48:56;;;;;;;8.97;8.07;;;;;;;5.36;58.42;101858.50;2569600;23;20189;-72
2022/04/04 00:49:56;;;;;;;9.00;8.10;;;;;;;5.19;58.80;101856.22;2569692;23;20160;-72
2022/04/04 00:50:57;;;;;;;9.57;8.57;;;;;;;5.18;59.11;101860.13;2569821;23;20531;-72
2022/04/04 00:51:58;;;;;;;9.77;8.77;;;;;;;5.10;59.51;101854.88;2568979;23;20513;-72
2022/04/04 00:52:59;;;;;;;10.37;9.30;;;;;;;5.06;59.48;101854.81;2569661;23;20155;-72
2022/04/04 00:54:00;;;;;;;10.20;9.07;;;;;;;4.95;60.24;101853.84;2568809;23;20552;-72
2022/04/04 00:55:00;;;;;;;10.47;8.93;;;;;;;4.35;60.01;101794.22;2556487;23;20237;-72
2022/04/04 00:56:01;;;;;;;9.70;8.70;;;;;;;4.71;60.85;101856.91;2556528;23;20251;-72
2022/04/04 00:57:02;;;;;;;12.13;8.70;;;;;;;4.82;60.56;101854.38;2568794;23;20541;-72
2022/04/04 00:58:05;;;;;;;9.43;8.43;;;;;;;4.75;59.98;101832.25;2569662;23;20161;-72
2022/04/04 00:59:10;;;;;;;10.15;8.50;;;;;;;4.92;59.61;101857.31;2569689;23;20181;-72
2022/04/04 01:00:11;;;;;;;10.65;8.57;;;;;;;4.17;59.74;101727.25;2569661;23;20157;-72
2022/04/04 01:01:12;;;;;;;10.55;8.95;;;;;;;4.96;59.36;101852.69;2569756;23;20603;-72
2022/04/04 01:02:13;;;;;;;8.77;7.88;;;;;;;4.99;59.28;101853.91;2569031;23;20180;-72
2022/04/04 01:03:15;;;;;;;10.37;9.30;;;;;;;4.94;59.67;101848.72;2569268;23;20149;-72
2022/04/04 01:04:16;;;;;;;9.70;8.70;;;;;;;4.91;60.01;101857.66;2555979;23;20161;-72
2022/04/04 01:05:17;;;;;;;9.70;8.35;;;;;;;4.63;60.20;101807.72;2556480;23;20153;-72
2022/04/04 01:06:18;;;;;;;9.77;8.53;;;;;;;4.87;60.32;101854.84;2569243;23;20681;-72
2022/04/04 01:07:18;;;;;;;12.10;8.15;;;;;;;4.82;60.63;101860.66;2569012;23;20471;-72
2022/04/04 01:08:19;;;;;;;10.33;8.27;;;;;;;4.78;60.68;101853.50;2569613;23;20180;-72
2022/04/04 01:09:19;;;;;;;10.87;9.07;;;;;;;4.81;60.53;101856.31;2556222;23;20168;-72
2022/04/04 01:10:20;;;;;;;9.90;8.30;;;;;;;4.85;60.37;101857.19;2556396;23;20149;-72
2022/04/04 01:11:20;;;;;;;10.17;8.37;;;;;;;4.88;60.64;101855.66;2569212;23;20155;-72
2022/04/04 01:12:22;;;;;;;10.93;8.00;;;;;;;4.94;60.44;101857.75;2569421;23;20149;-72
2022/04/04 01:13:23;;;;;;;11.73;8.45;;;;;;;4.81;59.66;101839.84;2568986;23;20248;-72
2022/04/04 01:14:23;;;;;;;9.97;8.60;;;;;;;4.94;59.57;101852.25;2569475;23;20602;-72
2022/04/04 01:15:30;;;;;;;10.30;7.90;;;;;;;4.94;60.10;101856.94;2569701;23;20517;-72
2022/04/04 01:16:30;;;;;;;9.15;8.25;;;;;;;4.96;60.17;101854.63;2569732;23;20129;-72
2022/04/04 01:17:31;;;;;;;8.77;7.87;;;;;;;4.98;59.76;101850.34;2568723;23;20176;-72
2022/04/04 01:18:31;;;;;;;9.87;7.83;;;;;;;4.99;59.86;101854.72;2569555;23;20233;-72
2022/04/04 01:19:33;;;;;;;9.50;8.33;;;;;;;4.18;59.39;101720.59;2569684;23;20152;-72
2022/04/04 01:20:37;;;;;;;10.27;8.55;;;;;;;4.18;59.17;101714.31;2569783;23;20232;-72
2022/04/04 01:21:37;;;;;;;8.98;8.07;;;;;;;4.39;59.38;101764.91;2568973;23;20508;-72
2022/04/04 01:22:38;;;;;;;9.63;8.63;;;;;;;5.06;59.01;101851.28;2569587;23;20171;-72
2022/04/04 01:23:41;;;;;;;9.43;8.00;;;;;;;5.05;59.58;101847.75;2568802;23;20181;-72
2022/04/04 01:24:42;;;;;;;9.23;8.15;;;;;;;5.06;59.38;101852.06;2569446;23;20214;-72
2022/04/04 01:25:43;;;;;;;8.77;7.93;;;;;;;4.98;59.13;101847.59;2569503;23;20632;-72
2022/04/04 01:26:48;;;;;;;10.13;7.70;;;;;;;5.08;59.33;101844.25;2569231;23;20488;-72
2022/04/04 01:27:49;;;;;;;9.30;7.72;;;;;;;4.28;58.79;101730.19;2569578;23;20158;-72
2022/04/04 01:28:49;;;;;;;9.63;7.80;;;;;;;5.12;58.50;101853.34;2569563;23;20157;-72
2022/04/04 01:29:50;;;;;;;8.40;7.60;;;;;;;5.15;58.42;101846.34;2569693;23;20153;-72
2022/04/04 01:30:53;;;;;;;8.40;7.60;;;;;;;5.15;58.64;101852.63;2569571;23;20153;-72
2022/04/04 01:31:54;;;;;;;8.00;7.20;;;;;;;5.16;58.65;101854.22;2568823;23;20826;-72
2022/04/04 01:32:55;;;;;;;8.60;7.70;;;;;;;5.04;58.64;101834.38;2569380;23;20226;-72
2022/04/04 01:33:55;;;;;;;8.60;7.70;;;;;;;5.15;58.73;101851.81;2555443;23;20608;-72
2022/04/04 01:34:56;;;;;;;9.07;8.17;;;;;;;5.17;58.47;101849.50;2556392;23;20615;-72
2022/04/04 01:36:00;;;;;;;8.77;7.87;;;;;;;5.17;57.86;101855.81;2569748;23;20150;-72
2022/04/04 01:37:01;;;;;;;8.40;7.50;;;;;;;5.18;58.43;101862.09;2568675;23;20156;-72
2022/04/04 01:38:01;;;;;;;8.63;7.72;;;;;;;5.13;57.96;101846.69;2569551;23;20168;-72
2022/04/04 01:39:03;;;;;;;9.40;7.70;;;;;;;5.15;58.32;101860.06;2569582;23;20163;-72
2022/04/04 01:40:06;;;;;;;8.57;7.65;;;;;;;4.09;57.84;101691.78;2569397;23;20158;-72
2022/04/04 01:41:06;;;;;;;8.77;7.60;;;;;;;5.08;58.22;101862.72;2569703;23;20168;-72
2022/04/04 01:42:07;;;;;;;8.67;7.53;;;;;;;5.06;58.16;101865.81;2568885;23;20150;-72
2022/04/04 01:43:09;;;;;;;8.87;7.27;;;;;;;4.62;58.40;101795.16;2569658;23;20225;-72
2022/04/04 01:44:10;;;;;;;9.10;7.25;;;;;;;5.06;58.41;101865.00;2568852;23;20177;-72
2022/04/04 01:45:11;;;;;;;9.00;7.80;;;;;;;4.57;58.83;101831.13;2569214;23;20200;-72
2022/04/04 01:46:24;;;;;;;8.50;7.70;;;;;;;4.08;58.36;101726.66;2569383;23;20167;-72
2022/04/04 01:47:25;;;;;;;9.82;7.80;;;;;;;4.57;58.42;101804.47;2568790;23;20139;-72
2022/04/04 01:48:25;;;;;;;9.60;7.63;;;;;;;4.99;58.22;101871.19;2569459;23;20606;-72
2022/04/04 01:49:26;;;;;;;10.03;8.00;;;;;;;5.01;58.22;101879.84;2556389;23;20440;-72
2022/04/04 01:50:26;;;;;;;9.40;8.40;;;;;;;5.01;57.90;101877.09;2556403;23;20145;-72
2022/04/04 01:51:28;;;;;;;11.07;8.43;;;;;;;4.98;58.55;101875.06;2568952;23;20168;-72
2022/04/04 01:52:29;;;;;;;9.40;8.40;;;;;;;5.02;58.20;101877.91;2569622;23;20151;-72
2022/04/04 01:53:31;;;;;;;9.03;7.90;;;;;;;4.58;58.34;101819.78;2568431;23;20708;-72
2022/04/04 01:54:32;;;;;;;8.57;7.68;;;;;;;5.01;58.50;101888.09;2569560;23;20174;-72
2022/04/04 01:55:33;;;;;;;9.63;8.20;;;;;;;4.28;57.95;101771.34;2569573;23;20203;-72
2022/04/04 01:56:33;;;;;;;9.47;8.40;;;;;;;4.12;57.88;101741.25;2569629;23;20182;-72
2022/04/04 01:57:35;;;;;;;8.93;8.03;;;;;;;5.02;58.18;101880.66;2568636;23;20595;-72
2022/04/04 01:58:36;;;;;;;9.43;7.88;;;;;;;4.99;58.21;101886.88;2569460;23;20609;-72
2022/04/04 01:59:36;;;;;;;8.83;7.93;;;;;;;5.00;57.90;101881.00;2569506;23;20511;-72
2022/04/04 02:00:38;;;;;;;9.13;7.87;;;;;;;4.98;58.41;101872.31;2569310;23;20149;-72
2022/04/04 02:01:39;;;;;;;14.82;8.88;;;;;;;4.88;57.98;101856.44;2568807;23;20154;-72
2022/04/04 02:02:39;;;;;;;12.63;8.13;;;;;;;4.85;57.57;101851.69;2569819;23;20193;-72
2022/04/04 02:03:41;;;;;;;11.80;7.97;;;;;;;4.15;57.45;101754.22;2568976;23;20145;-72
2022/04/04 02:04:42;;;;;;;8.85;7.95;;;;;;;5.01;57.93;101876.28;2570414;23;20154;-72
2022/04/04 02:05:42;;;;;;;10.77;7.80;;;;;;;5.01;57.79;101874.34;2570210;23;20153;-72
2022/04/04 02:06:44;;;;;;;13.27;8.80;;;;;;;4.98;57.65;101874.28;2569973;23;20165;-72
2022/04/04 02:07:44;;;;;;;14.98;9.07;;;;;;;4.88;57.40;101875.66;2569912;23;20566;-72
2022/04/04 02:08:45;;;;;;;10.00;8.33;;;;;;;4.87;57.58;101868.59;2569998;23;20155;-72
2022/04/04 02:09:46;;;;;;;26.35;10.02;;;;;;;4.77;57.95;101858.19;2570326;23;20153;-72
2022/04/04 02:10:46;;;;;;;21.60;9.93;;;;;;;4.80;57.80;101865.72;2570234;23;20149;-72
2022/04/04 02:11:48;;;;;;;11.20;8.37;;;;;;;4.71;57.83;101875.31;2569750;23;20157;-72
2022/04/04 02:12:48;;;;;;;10.00;8.02;;;;;;;4.68;57.98;101865.09;2570034;23;20691;-72
2022/04/04 02:13:49;;;;;;;9.93;8.67;;;;;;;4.63;57.59;101865.38;2569586;23;20544;-72
2022/04/04 02:14:50;;;;;;;9.93;8.37;;;;;;;4.59;58.33;101867.25;2570212;23;20149;-72
2022/04/04 02:15:54;;;;;;;13.83;8.60;;;;;;;4.50;58.29;101863.91;2570432;23;20153;-72
2022/04/04 02:16:54;;;;;;;12.68;8.50;;;;;;;4.48;57.47;101866.25;2556219;23;20566;-72
2022/04/04 02:17:56;;;;;;;9.07;8.03;;;;;;;4.44;57.98;101860.69;2557143;23;20164;-72
2022/04/04 02:18:57;;;;;;;9.65;8.65;;;;;;;4.42;58.60;101860.22;2570223;23;20163;-72
2022/04/04 02:19:57;;;;;;;8.93;8.00;;;;;;;4.36;58.27;101871.88;2570614;23;20157;-72
2022/04/04 02:20:59;;;;;;;10.27;9.17;;;;;;;4.32;58.46;101874.53;2570472;23;20159;-72
2022/04/04 02:21:59;;;;;;;9.95;9.02;;;;;;;4.28;59.02;101873.69;2569678;23;20642;-72
2022/04/04 02:23:00;;;;;;;10.63;8.57;;;;;;;4.28;59.44;101873.69;2570457;23;20152;-72
2022/04/04 02:24:01;;;;;;;9.43;8.50;;;;;;;4.26;59.30;101866.97;2569444;23;20156;-72
2022/04/04 02:25:01;;;;;;;10.00;8.00;;;;;;;4.27;58.85;101871.28;2570318;23;20155;-72
2022/04/04 02:26:02;;;;;;;11.47;8.00;;;;;;;4.27;58.93;101883.03;2570360;23;20155;-72
2022/04/04 02:27:04;;;;;;;9.75;8.75;;;;;;;4.20;59.07;101868.41;2569337;23;20586;-72
2022/04/04 02:28:05;;;;;;;10.70;8.55;;;;;;;4.06;58.96;101848.88;2570069;23;20208;-72
2022/04/04 02:29:05;;;;;;;9.45;8.43;;;;;;;3.76;58.77;101788.28;2556899;23;20155;-72
2022/04/04 02:30:06;;;;;;;10.97;8.20;;;;;;;4.35;58.68;101886.72;2557053;23;20497;-72
2022/04/04 02:31:07;;;;;;;10.52;8.88;;;;;;;4.35;58.73;101882.03;2570263;23;20153;-72
2022/04/04 02:32:08;;;;;;;14.93;8.80;;;;;;;4.38;58.70;101884.09;2569525;23;20156;-72
2022/04/04 02:33:10;;;;;;;11.20;9.50;;;;;;;4.38;58.90;101875.84;2570092;23;20245;-72
2022/04/04 02:34:10;;;;;;;9.77;8.43;;;;;;;4.41;58.29;101886.09;2569581;23;20171;-72
2022/04/04 02:35:11;;;;;;;9.60;8.60;;;;;;;4.41;58.48;101885.31;2570312;23;20159;-72
2022/04/04 02:36:12;;;;;;;10.27;9.03;;;;;;;4.19;58.52;101851.13;2570092;23;20152;-73
2022/04/04 02:37:14;;;;;;;10.00;8.63;;;;;;;4.25;58.41;101868.91;2569490;23;20160;-72
2022/04/04 02:38:15;;;;;;;9.70;8.70;;;;;;;4.05;58.45;101833.59;2569974;23;20163;-72
2022/04/04 02:39:15;;;;;;;9.97;8.93;;;;;;;4.43;58.29;101892.03;2570379;23;20153;-72
2022/04/04 02:40:16;;;;;;;9.30;8.33;;;;;;;4.44;58.61;101890.88;2570182;23;20162;-72
2022/04/04 02:41:16;;;;;;;10.07;9.07;;;;;;;3.60;58.20;101759.31;2570200;23;20160;-72
2022/04/04 02:42:17;;;;;;;10.43;9.33;;;;;;;4.40;59.18;101890.00;2569621;23;20153;-72
2022/04/04 02:43:18;;;;;;;11.03;9.20;;;;;;;4.43;58.75;101885.75;2569575;23;20156;-72
2022/04/04 02:44:19;;;;;;;13.00;9.82;;;;;;;3.27;58.64;101709.63;2569977;23;20152;-72
2022/04/04 02:45:20;;;;;;;11.07;8.97;;;;;;;3.22;58.59;101704.41;2570069;23;20169;-72
2022/04/04 02:46:21;;;;;;;10.00;9.00;;;;;;;4.44;58.63;101890.88;2570227;23;20608;-72
2022/04/04 02:47:22;;;;;;;11.10;9.33;;;;;;;4.21;58.51;101881.75;2569388;23;20212;-72
2022/04/04 02:48:22;;;;;;;11.00;9.47;;;;;;;4.44;58.48;101890.06;2570068;23;20145;-72
2022/04/04 02:49:24;;;;;;;11.77;9.37;;;;;;;4.47;58.36;101887.38;2570270;23;20498;-72
2022/04/04 02:50:26;;;;;;;12.30;9.65;;;;;;;4.46;58.14;101882.28;2570009;23;20145;-72
2022/04/04 02:51:27;;;;;;;12.48;10.05;;;;;;;4.40;58.21;101887.25;2569537;23;20148;-72
2022/04/04 02:52:27;;;;;;;11.77;10.47;;;;;;;4.42;59.06;101892.38;2570404;23;20154;-72
2022/04/04 02:53:28;;;;;;;10.73;9.67;;;;;;;4.42;58.75;101895.91;2555947;23;20212;-72
2022/04/04 02:54:28;;;;;;;10.73;9.63;;;;;;;4.44;58.22;101890.88;2557045;23;20600;-72
2022/04/04 02:56:48;;;;;;;11.38;10.02;;;;;;;4.47;58.22;101892.09;2569449;23;20140;-72
2022/04/04 02:57:50;;;;;;;10.73;9.70;;;;;;;4.48;58.43;101891.75;2570115;23;20241;-72
2022/04/04 02:58:51;;;;;;;11.85;10.35;;;;;;;4.49;58.57;101893.34;2556712;23;20164;-72
2022/04/04 02:59:51;;;;;;;14.50;10.80;;;;;;;4.13;58.26;101836.13;2556994;23;20631;-72
2022/04/04 03:00:52;;;;;;;13.00;11.30;;;;;;;4.51;58.13;101888.25;2570144;23;20173;-72
2022/04/04 03:01:52;;;;;;;13.57;11.30;;;;;;;4.45;58.15;101881.47;2569579;23;20862;-72
2022/04/04 03:02:54;;;;;;;13.23;10.70;;;;;;;4.57;58.47;101888.78;2570103;23;20622;-73
2022/04/04 03:03:55;;;;;;;14.98;11.48;;;;;;;4.54;57.93;101889.50;2569212;23;20210;-72
2022/04/04 03:04:55;;;;;;;12.17;10.83;;;;;;;4.13;58.55;101824.34;2570034;23;20548;-72
2022/04/04 03:05:56;;;;;;;12.67;10.90;;;;;;;4.55;58.39;101896.56;2570024;23;20614;-72
2022/04/04 03:06:56;;;;;;;12.53;10.93;;;;;;;4.54;58.13;101905.97;2569246;23;20172;-72
2022/04/04 03:07:57;;;;;;;12.87;11.50;;;;;;;4.52;58.07;101894.56;2570210;23;20505;-72
2022/04/04 03:08:58;;;;;;;13.43;10.73;;;;;;;4.51;58.09;101892.97;2569882;23;20157;-72
2022/04/04 03:09:58;;;;;;;12.43;11.13;;;;;;;4.50;57.85;101897.66;2570002;23;20416;-72
2022/04/04 03:10:59;;;;;;;12.47;9.77;;;;;;;4.49;57.10;101896.06;2570111;23;20599;-72
2022/04/04 03:12:01;;;;;;;11.30;9.77;;;;;;;4.46;57.23;101901.50;2555959;23;20239;-72
2022/04/04 03:13:05;;;;;;;10.57;9.48;;;;;;;3.68;57.43;101775.56;2557197;23;20163;-72
2022/04/04 03:14:06;;;;;;;14.32;10.82;;;;;;;4.38;57.45;101894.25;2569065;23;20762;-72
2022/04/04 03:15:07;;;;;;;11.90;10.70;;;;;;;4.37;58.05;101893.44;2569782;23;20513;-72
2022/04/04 03:16:08;;;;;;;14.80;11.20;;;;;;;4.25;58.06;101879.09;2569836;23;20153;-72
2022/04/04 03:17:09;;;;;;;18.27;11.73;;;;;;;4.32;58.44;101895.69;2569325;23;20158;-72
2022/04/04 03:18:10;;;;;;;20.42;12.10;;;;;;;4.31;58.46;101897.63;2570035;23;20159;-72
2022/04/04 03:19:11;;;;;;;19.97;12.37;;;;;;;4.19;58.56;101884.06;2569965;23;20179;-72
2022/04/04 03:20:12;;;;;;;21.83;12.23;;;;;;;4.27;58.55;101891.28;2556857;23;20165;-72
2022/04/04 03:21:13;;;;;;;18.35;12.30;;;;;;;4.27;58.61;101899.50;2557104;23;20232;-72
2022/04/04 03:22:14;;;;;;;17.70;12.27;;;;;;;4.23;58.59;101901.41;2569059;23;20171;-72
2022/04/04 03:23:14;;;;;;;15.83;12.70;;;;;;;4.20;58.95;101899.34;2569538;23;20595;-72
2022/04/04 03:24:15;;;;;;;14.13;11.97;;;;;;;4.18;59.11;101907.16;2569708;23;20179;-72
2022/04/04 03:25:17;;;;;;;14.33;12.47;;;;;;;3.98;58.98;101864.38;2569944;23;20619;-72
2022/04/04 03:26:18;;;;;;;15.68;11.43;;;;;;;4.18;59.68;101906.34;2569924;23;20153;-72
2022/04/04 03:27:18;;;;;;;14.53;11.33;;;;;;;4.20;58.87;101906.81;2569181;23;20153;-72
2022/04/04 03:28:19;;;;;;;13.90;12.50;;;;;;;4.19;59.39;101907.94;2570013;23;20160;-72
2022/04/04 03:29:19;;;;;;;13.97;12.43;;;;;;;4.17;59.35;101907.53;2570068;23;20156;-72
2022/04/04 03:30:26;;;;;;;14.40;12.80;;;;;;;4.07;59.72;101900.66;2570072;23;20152;-72
2022/04/04 03:31:26;;;;;;;14.23;12.50;;;;;;;4.14;59.94;101909.03;2569290;23;20159;-72
2022/04/04 03:32:27;;;;;;;15.13;12.20;;;;;;;4.17;60.18;101904.78;2569951;23;20248;-72
2022/04/04 03:33:27;;;;;;;15.97;12.77;;;;;;;4.19;59.50;101911.50;2568952;23;20176;-72
2022/04/04 03:34:28;;;;;;;17.40;12.63;;;;;;;4.21;59.84;101908.41;2569998;23;20145;-72
2022/04/04 03:35:31;;;;;;;13.37;12.07;;;;;;;3.23;59.86;101758.06;2570011;23;20223;-72
2022/04/04 03:36:31;;;;;;;14.02;12.52;;;;;;;3.80;59.85;101837.72;2570062;23;20148;-72
2022/04/04 03:37:34;;;;;;;14.30;12.80;;;;;;;4.23;59.68;101911.56;2569095;23;20145;-72
2022/04/04 03:38:35;;;;;;;13.57;12.18;;;;;;;4.20;59.93;101917.78;2569972;23;20155;-72
2022/04/04 03:39:36;;;;;;;13.88;12.35;;;;;;;4.20;59.63;101923.28;2570003;23;20533;-72
2022/04/04 03:40:37;;;;;;;15.63;12.00;;;;;;;4.20;59.35;101923.28;2569767;23;20145;-72
2022/04/04 03:41:38;;;;;;;14.38;12.75;;;;;;;4.20;59.53;101924.06;2569077;23;20237;-72
2022/04/04 03:42:43;;;;;;;14.53;13.03;;;;;;;4.22;59.61;101951.13;2570027;23;20155;-72
2022/04/04 03:43:43;;;;;;;14.23;12.15;;;;;;;3.52;59.88;101815.94;2569129;23;20634;-72
2022/04/04 03:44:44;;;;;;;14.50;12.33;;;;;;;4.25;59.93;101932.00;2569726;23;20196;-72
2022/04/04 03:45:44;;;;;;;17.57;12.47;;;;;;;4.27;59.54;101929.69;2569861;23;20216;-72
2022/04/04 03:46:45;;;;;;;16.93;13.27;;;;;;;3.85;59.35;101859.38;2569273;23;20610;-72
2022/04/04 03:47:46;;;;;;;15.60;12.10;;;;;;;3.16;59.44;101758.69;2569525;23;20149;-72
2022/04/04 03:48:47;;;;;;;13.25;11.85;;;;;;;4.06;58.99;101904.53;2569837;23;20187;-72
2022/04/04 03:49:48;;;;;;;17.10;12.43;;;;;;;4.27;59.40;101940.66;2570047;23;20152;-72
2022/04/04 03:50:51;;;;;;;15.20;12.53;;;;;;;4.29;59.77;101937.56;2569869;23;20503;-72
2022/04/04 03:51:51;;;;;;;16.50;12.52;;;;;;;4.33;59.37;101941.19;2569406;23;20704;-72
2022/04/04 03:52:53;;;;;;;16.97;12.97;;;;;;;4.25;59.40;101932.00;2569772;23;20199;-72
2022/04/04 03:53:54;;;;;;;16.38;13.20;;;;;;;4.32;59.25;101939.59;2568956;23;20163;-72
2022/04/04 03:54:54;;;;;;;16.37;12.80;;;;;;;4.35;59.66;101933.38;2569820;23;20604;-72
2022/04/04 03:55:55;;;;;;;15.27;13.03;;;;;;;3.83;59.28;101847.97;2570038;23;20156;-72
2022/04/04 03:56:56;;;;;;;13.17;11.60;;;;;;;4.38;59.06;101938.97;2569068;23;20176;-72
2022/04/04 03:57:57;;;;;;;15.30;12.73;;;;;;;4.35;58.63;101925.16;2569984;23;20885;-72
2022/04/04 03:58:58;;;;;;;13.55;12.15;;;;;;;4.40;59.05;101936.66;2569821;23;20218;-72
2022/04/04 03:59:58;;;;;;;16.90;12.67;;;;;;;3.78;59.20;101845.50;2569830;23;20160;-72
2022/04/04 04:00:59;;;;;;;15.50;12.17;;;;;;;4.47;59.04;101939.53;2570113;23;20184;-72
2022/04/04 04:01:59;;;;;;;21.73;13.33;;;;;;;4.51;59.33;101937.69;2569076;23;20148;-72
2022/04/04 04:03:00;;;;;;;18.13;12.50;;;;;;;4.53;59.19;101931.84;2569952;23;20175;-72
2022/04/04 04:04:01;;;;;;;17.90;12.43;;;;;;;4.51;58.94;101937.69;2568921;23;20148;-72
2022/04/04 04:05:02;;;;;;;13.33;11.20;;;;;;;3.32;58.37;101761.41;2570080;23;20153;-72
2022/04/04 04:06:12;;;;;;;14.85;11.48;;;;;;;4.53;58.71;101929.09;2569817;23;20155;-72
2022/04/04 04:07:15;;;;;;;11.60;10.40;;;;;;;4.47;58.19;101914.06;2569037;23;20606;-72
2022/04/04 04:08:16;;;;;;;15.02;11.75;;;;;;;4.59;58.17;101944.13;2569745;23;20259;-72
2022/04/04 04:09:17;;;;;;;12.63;11.43;;;;;;;4.58;59.06;101937.84;2569862;23;20230;-72
2022/04/04 04:10:17;;;;;;;14.37;12.43;;;;;;;4.57;59.12;101938.19;2569853;23;20156;-72
2022/04/04 04:11:18;;;;;;;13.20;11.83;;;;;;;4.40;59.28;101911.97;2556309;23;20732;-72
2022/04/04 04:12:22;;;;;;;14.60;12.40;;;;;;;4.64;60.05;101941.91;2556445;23;20556;-72
2022/04/04 04:13:23;;;;;;;13.45;12.05;;;;;;;4.68;60.33;101945.53;2569495;23;20463;-72
2022/04/04 04:14:25;;;;;;;15.83;12.20;;;;;;;4.55;60.20;101919.34;2569552;23;20146;-72
2022/04/04 04:15:25;;;;;;;12.88;11.48;;;;;;;4.76;60.50;101938.19;2556668;23;20164;-72
2022/04/04 04:16:27;;;;;;;12.47;11.17;;;;;;;4.78;60.45;101941.38;2556528;23;20257;-72
2022/04/04 04:17:28;;;;;;;12.38;10.95;;;;;;;4.70;60.00;101921.22;2569080;23;20512;-72
2022/04/04 04:18:29;;;;;;;12.83;11.10;;;;;;;3.28;59.49;101681.88;2569961;23;20219;-72
2022/04/04 04:20:50;;;;;;;12.27;10.98;;;;;;;2.84;58.50;101601.09;2569579;23;20220;-72
2022/04/04 04:21:51;;;;;;;12.25;10.40;;;;;;;5.05;58.63;101943.09;2567435;23;20625;-72
2022/04/04 04:22:54;;;;;;;11.30;9.82;;;;;;;5.08;58.44;101954.16;2569646;23;20170;-72
2022/04/04 04:23:55;;;;;;;13.40;10.93;;;;;;;4.56;57.56;101859.75;2568280;23;20357;-72
2022/04/04 04:24:55;;;;;;;14.97;11.37;;;;;;;4.48;58.06;101839.59;2569800;23;20593;-72
2022/04/04 04:25:56;;;;;;;12.77;10.23;;;;;;;5.10;57.48;101929.88;2569576;23;20216;-72
2022/04/04 04:26:56;;;;;;;14.03;10.57;;;;;;;5.30;56.86;101949.88;2568816;23;20192;-72
2022/04/04 04:28:00;;;;;;;11.50;10.40;;;;;;;5.34;57.03;101959.75;2569662;23;20625;-72
2022/04/04 04:29:00;;;;;;;14.18;10.57;;;;;;;5.38;57.15;101963.38;2569681;23;20496;-72
2022/04/04 04:30:02;;;;;;;12.83;10.17;;;;;;;4.24;56.86;101786.94;2569873;23;20153;-72
2022/04/04 04:31:02;;;;;;;11.13;10.00;;;;;;;5.03;56.51;101896.75;2569689;23;20155;-72
2022/04/04 04:32:03;;;;;;;11.63;10.43;;;;;;;5.42;56.61;101967.00;2569068;23;20154;-72
2022/04/04 04:33:04;;;;;;;10.73;9.63;;;;;;;5.49;56.26;101967.09;2569686;23;20494;-72
2022/04/04 04:34:05;;;;;;;13.13;11.10;;;;;;;5.51;56.29;101962.06;2568873;23;20183;-72
2022/04/04 04:35:06;;;;;;;15.33;11.37;;;;;;;5.41;56.17;101970.09;2569687;23;20162;-72
2022/04/04 04:36:07;;;;;;;10.85;9.75;;;;;;;5.55;56.50;101965.63;2569609;23;20159;-72
2022/04/04 04:37:08;;;;;;;13.43;10.88;;;;;;;5.31;56.36;101938.50;2568630;23;20157;-72
2022/04/04 04:38:08;;;;;;;12.47;10.90;;;;;;;5.62;57.06;101963.03;2569637;23;20155;-72
2022/04/04 04:39:10;;;;;;;12.30;9.97;;;;;;;5.68;56.47;101967.06;2570041;23;20156;-72
2022/04/04 04:40:11;;;;;;;12.45;10.00;;;;;;;5.71;56.22;101966.34;2568259;23;20151;-73
2022/04/04 04:41:12;;;;;;;11.35;10.15;;;;;;;4.84;56.25;101819.91;2569724;23;20185;-72
2022/04/04 04:42:12;;;;;;;14.37;12.67;;;;;;;5.85;56.19;101963.06;2568223;23;20167;-72
2022/04/04 04:43:13;;;;;;;11.27;10.00;;;;;;;5.87;55.42;101967.03;2564600;23;20170;-72
2022/04/04 04:44:14;;;;;;;10.83;9.60;;;;;;;5.78;55.58;101949.13;2566327;23;20153;-72
2022/04/04 04:45:14;;;;;;;11.53;9.97;;;;;;;5.92;55.68;101969.47;2566611;23;20216;-72
2022/04/04 04:46:15;;;;;;;10.50;9.40;;;;;;;5.98;56.18;101983.69;2569076;23;20170;-72
2022/04/04 04:47:17;;;;;;;11.27;9.67;;;;;;;6.03;55.81;101962.19;2568156;23;20154;-72